Fair Oaks Ranch, California
Current Conditions -  °F | °C
As of 10:51 PM on Tuesday 21 Oct 2014 (Local Time) from KVNY Reporting Station
Clear Clear  
Wind Chill: 67°   Ceiling: Unl
Heat Index: 67°   Visibility: 10mi
Dew Point: 51°   Wind: 0mph
Humidity: 57%   Direction: NA
Pressure: 29.88"   Gusts: NA
Location:  34.4187°N, 118.412°W
Report Text: KVNY 220551Z 00000KT 10SM CLR 19/11 A2988 RMK AO2 SLP111 T01940106 10256 20194 53007
Loading
Personal Weather Stations






























Interactive Weather Map
Tropical Storm Tracking
New forecast layout! Learn more

10-Day Weather Forecast

Advertisements
Track Severe Weather on mobile